Irini — SYZA — position and weather

sailwx.info

Track history (hours):
 
Tides and Currents Weather Stations Pressure Air Temp Water Temp Dewpoint Dewpoint Depression Visibility Wind Speed Wind Dir Waves Ship Positions

Irini

Last reported at 2015-Jul-04 18:21 UTC. Time now 2015-Jul-06 09:16 UTC.
Position N 37°54' E 024°33'.

Length 137 m; draft 7.5 m.

Type: Ship (hazmat cat A). MMSI: 240052000.

Date/timePositionNaut miles runAvg speedWind from/ knotsBaromVisibWave heightAir tempDewpointWater temp
2015-Jul-04 18:21N 37°54' E 024°33'3010.3
2015-Jul-04 15:24N 37°36' E 024°02'910.9
2015-Jul-04 14:33N 37°37' E 023°50'1110.6
2015-Jul-04 13:33N 37°44' E 023°40'1111.2
2015-Jul-04 12:33N 37°55' E 023°36'7 7.0
2015-Jul-04 11:33N 38°01' E 023°32'2 1.6
2015-Jul-04 10:33N 38°02' E 023°31'0 0.0
2015-Jul-04 09:30N 38°02' E 023°31'0 0.0
2015-Jul-04 08:30N 38°02' E 023°31'0 0.0
2015-Jul-04 07:24N 38°02' E 023°31'0 0.0
2015-Jul-04 06:30N 38°02' E 023°31'0 0.0
2015-Jul-04 05:30N 38°02' E 023°31'0 0.0
2015-Jul-04 02:06N 38°02' E 023°31'0 0.0
2015-Jul-03 22:18N 38°02' E 023°31'0 0.0
2015-Jul-03 21:30N 38°02' E 023°31'0 0.0
2015-Jul-03 20:24N 38°02' E 023°31'0 0.0
2015-Jul-03 19:24N 38°02' E 023°31'0 0.0
2015-Jul-03 18:33N 38°02' E 023°31'0 0.0
2015-Jul-03 17:33N 38°02' E 023°31'0 0.0
2015-Jul-03 14:30N 38°02' E 023°31'0 0.0
2015-Jul-03 12:18N 38°02' E 023°31'0 0.1
2015-Jul-03 11:33N 38°02' E 023°31'1 0.9
2015-Jul-03 10:25N 38°01' E 023°31'0 0.0
2015-Jul-03 09:28N 38°01' E 023°31'0 0.0
2015-Jul-03 08:31N 38°01' E 023°31'0 0.0
2015-Jul-03 07:31N 38°01' E 023°31'0 0.0
2015-Jul-03 06:31N 38°01' E 023°31'0 0.0
2015-Jul-03 05:31N 38°01' E 023°31'0 0.0
2015-Jul-03 04:31N 38°01' E 023°31'0 0.0
2015-Jul-03 03:31N 38°01' E 023°32'0 0.1
2015-Jul-03 02:31N 38°01' E 023°32'0 0.0
2015-Jul-03 01:28N 38°01' E 023°32'0 0.0
2015-Jul-03 00:22N 38°01' E 023°32'0 0.0
2015-Jul-02 23:31N 38°01' E 023°32'0 0.0
2015-Jul-02 22:28N 38°01' E 023°32'0 0.0
2015-Jul-02 21:31N 38°01' E 023°32'0 0.0
2015-Jul-02 20:31N 38°01' E 023°32'0 0.1
2015-Jul-02 19:31N 38°01' E 023°31'0 0.0
2015-Jul-02 18:31N 38°01' E 023°32'0 0.0
2015-Jul-02 17:28N 38°01' E 023°31'0 0.0
2015-Jul-02 16:28N 38°01' E 023°31'0 0.0
2015-Jul-02 15:31N 38°01' E 023°31'0 0.0
2015-Jul-02 14:22N 38°01' E 023°31'0 0.0
2015-Jul-02 13:28N 38°01' E 023°31'0 0.0
2015-Jul-02 12:33N 38°01' E 023°31'1 0.4
2015-Jul-02 10:14N 38°02' E 023°30'0 0.0
2015-Jul-02 03:24N 38°02' E 023°31'0 0.0
2015-Jul-02 02:33N 38°02' E 023°31'0 0.0
2015-Jul-02 01:30N 38°02' E 023°31'0 0.0
2015-Jul-02 00:33N 38°02' E 023°31'0 0.0
2015-Jul-01 23:33N 38°02' E 023°31'0 0.0
2015-Jul-01 22:33N 38°02' E 023°31'0 0.0
2015-Jul-01 21:33N 38°02' E 023°31'0 0.0
2015-Jul-01 18:14N 38°02' E 023°31'1 2.1
2015-Jul-01 17:33N 38°01' E 023°32'3 0.1
2015-Jun-30 10:03N 38°01' E 023°36'2 3.1
2015-Jun-30 09:33N 38°01' E 023°34'8 8.0
2015-Jun-30 08:33N 37°53' E 023°38'1212.0
2015-Jun-30 07:33N 37°42' E 023°44'2610.4
2015-Jun-30 05:05N 37°43' E 024°16'3910.7
2015-Jun-30 01:24N 38°21' E 024°30'  
2015-Jun-26 15:30N 37°36' E 024°02'1010.9
2015-Jun-26 14:33N 37°38' E 023°49'1010.4
2015-Jun-26 13:34N 37°45' E 023°40'1010.3
2015-Jun-26 12:34N 37°50' E 023°29'1111.3
2015-Jun-26 11:34N 37°52' E 023°15'8 0.3
2015-Jun-25 07:31N 37°54' E 023°05'0 0.1
2015-Jun-25 06:32N 37°54' E 023°05'0 0.0
2015-Jun-25 00:29N 37°54' E 023°05'0 0.0
2015-Jun-24 22:32N 37°54' E 023°05'0 0.0
2015-Jun-24 18:32N 37°54' E 023°04'  
Track history (hours):
 
Tides and Currents Weather Stations Pressure Air Temp Water Temp Dewpoint Dewpoint Depression Visibility Wind Speed Wind Dir Waves Ship Positions

Irini

Last reported at 2015-Jul-04 18:21 UTC. Time now 2015-Jul-06 09:16 UTC.
Position N 37°54' E 024°33'.

Length 137 m; draft 7.5 m.

Type: Ship (hazmat cat A). MMSI: 240052000.

Date/timePositionNaut miles runAvg speedWind from/ knotsBaromVisibWave heightAir tempDewpointWater temp
2015-Jul-04 18:21N 37°54' E 024°33'3010.3
2015-Jul-04 15:24N 37°36' E 024°02'910.9
2015-Jul-04 14:33N 37°37' E 023°50'1110.6
2015-Jul-04 13:33N 37°44' E 023°40'1111.2
2015-Jul-04 12:33N 37°55' E 023°36'7 7.0
2015-Jul-04 11:33N 38°01' E 023°32'2 1.6
2015-Jul-04 10:33N 38°02' E 023°31'0 0.0
2015-Jul-04 09:30N 38°02' E 023°31'0 0.0
2015-Jul-04 08:30N 38°02' E 023°31'0 0.0
2015-Jul-04 07:24N 38°02' E 023°31'0 0.0
2015-Jul-04 06:30N 38°02' E 023°31'0 0.0
2015-Jul-04 05:30N 38°02' E 023°31'0 0.0
2015-Jul-04 02:06N 38°02' E 023°31'0 0.0
2015-Jul-03 22:18N 38°02' E 023°31'0 0.0
2015-Jul-03 21:30N 38°02' E 023°31'0 0.0
2015-Jul-03 20:24N 38°02' E 023°31'0 0.0
2015-Jul-03 19:24N 38°02' E 023°31'0 0.0
2015-Jul-03 18:33N 38°02' E 023°31'0 0.0
2015-Jul-03 17:33N 38°02' E 023°31'0 0.0
2015-Jul-03 14:30N 38°02' E 023°31'0 0.0
2015-Jul-03 12:18N 38°02' E 023°31'0 0.1
2015-Jul-03 11:33N 38°02' E 023°31'1 0.9
2015-Jul-03 10:25N 38°01' E 023°31'0 0.0
2015-Jul-03 09:28N 38°01' E 023°31'0 0.0
2015-Jul-03 08:31N 38°01' E 023°31'0 0.0
2015-Jul-03 07:31N 38°01' E 023°31'0 0.0
2015-Jul-03 06:31N 38°01' E 023°31'0 0.0
2015-Jul-03 05:31N 38°01' E 023°31'0 0.0
2015-Jul-03 04:31N 38°01' E 023°31'0 0.0
2015-Jul-03 03:31N 38°01' E 023°32'0 0.1
2015-Jul-03 02:31N 38°01' E 023°32'0 0.0
2015-Jul-03 01:28N 38°01' E 023°32'0 0.0
2015-Jul-03 00:22N 38°01' E 023°32'0 0.0
2015-Jul-02 23:31N 38°01' E 023°32'0 0.0
2015-Jul-02 22:28N 38°01' E 023°32'0 0.0
2015-Jul-02 21:31N 38°01' E 023°32'0 0.0
2015-Jul-02 20:31N 38°01' E 023°32'0 0.1
2015-Jul-02 19:31N 38°01' E 023°31'0 0.0
2015-Jul-02 18:31N 38°01' E 023°32'0 0.0
2015-Jul-02 17:28N 38°01' E 023°31'0 0.0
2015-Jul-02 16:28N 38°01' E 023°31'0 0.0
2015-Jul-02 15:31N 38°01' E 023°31'0 0.0
2015-Jul-02 14:22N 38°01' E 023°31'0 0.0
2015-Jul-02 13:28N 38°01' E 023°31'0 0.0
2015-Jul-02 12:33N 38°01' E 023°31'1 0.4
2015-Jul-02 10:14N 38°02' E 023°30'0 0.0
2015-Jul-02 03:24N 38°02' E 023°31'0 0.0
2015-Jul-02 02:33N 38°02' E 023°31'0 0.0
2015-Jul-02 01:30N 38°02' E 023°31'0 0.0
2015-Jul-02 00:33N 38°02' E 023°31'0 0.0
2015-Jul-01 23:33N 38°02' E 023°31'0 0.0
2015-Jul-01 22:33N 38°02' E 023°31'0 0.0
2015-Jul-01 21:33N 38°02' E 023°31'0 0.0
2015-Jul-01 18:14N 38°02' E 023°31'1 2.1
2015-Jul-01 17:33N 38°01' E 023°32'3 0.1
2015-Jun-30 10:03N 38°01' E 023°36'2 3.1
2015-Jun-30 09:33N 38°01' E 023°34'8 8.0
2015-Jun-30 08:33N 37°53' E 023°38'1212.0
2015-Jun-30 07:33N 37°42' E 023°44'2610.4
2015-Jun-30 05:05N 37°43' E 024°16'3910.7
2015-Jun-30 01:24N 38°21' E 024°30'  
2015-Jun-26 15:30N 37°36' E 024°02'1010.9
2015-Jun-26 14:33N 37°38' E 023°49'1010.4
2015-Jun-26 13:34N 37°45' E 023°40'1010.3
2015-Jun-26 12:34N 37°50' E 023°29'1111.3
2015-Jun-26 11:34N 37°52' E 023°15'8 0.3
2015-Jun-25 07:31N 37°54' E 023°05'0 0.1
2015-Jun-25 06:32N 37°54' E 023°05'0 0.0
2015-Jun-25 00:29N 37°54' E 023°05'0 0.0
2015-Jun-24 22:32N 37°54' E 023°05'0 0.0
2015-Jun-24 18:32N 37°54' E 023°04'  

Dump ship's entire track history